createdAt,value
2022-10-06T00:01:12.672Z,14.10
2022-10-06T00:03:40.836Z,14.17
2022-10-06T00:06:11.015Z,14.06
2022-10-06T00:08:40.850Z,14.16
2022-10-06T00:11:12.756Z,14.10
2022-10-06T00:13:40.908Z,14.03
2022-10-06T00:16:22.430Z,13.92
2022-10-06T00:18:49.825Z,13.97
2022-10-06T00:21:17.209Z,14.05
2022-10-06T00:23:45.019Z,14.08
2022-10-06T00:26:17.575Z,14.13
2022-10-06T00:28:47.820Z,14.02
2022-10-06T00:31:16.277Z,13.98
2022-10-06T00:33:43.383Z,13.98
2022-10-06T00:36:10.870Z,13.84
2022-10-06T00:38:38.509Z,13.80
2022-10-06T00:41:16.635Z,13.77
2022-10-06T00:43:50.874Z,13.66
2022-10-06T00:46:30.166Z,13.73
2022-10-06T00:49:37.017Z,13.72
2022-10-06T00:52:09.109Z,13.58
2022-10-06T00:54:36.713Z,13.78
2022-10-06T00:57:05.995Z,13.79
2022-10-06T00:59:33.426Z,13.65
2022-10-06T01:02:07.269Z,13.71
2022-10-06T01:04:37.940Z,13.67
2022-10-06T01:07:05.102Z,13.76
2022-10-06T01:09:32.828Z,13.80
2022-10-06T01:12:04.110Z,13.80
2022-10-06T01:14:31.830Z,13.79
2022-10-06T01:17:08.730Z,13.78
2022-10-06T01:19:55.145Z,13.73
2022-10-06T01:22:58.066Z,13.72
2022-10-06T01:25:27.008Z,13.72
2022-10-06T01:27:55.959Z,13.24
2022-10-06T01:30:33.158Z,13.46
2022-10-06T01:33:00.658Z,13.55
2022-10-06T01:35:28.121Z,13.53
2022-10-06T01:37:58.664Z,13.54
2022-10-06T01:40:29.002Z,13.62
2022-10-06T01:42:58.309Z,13.47
2022-10-06T01:45:27.145Z,13.52
2022-10-06T01:47:54.212Z,13.32
2022-10-06T01:50:22.098Z,13.44
2022-10-06T01:52:49.172Z,13.43
2022-10-06T01:55:17.266Z,13.36
2022-10-06T01:57:44.391Z,13.36
2022-10-06T02:00:13.328Z,13.28
2022-10-06T02:02:42.537Z,13.33
2022-10-06T02:05:09.881Z,13.38
2022-10-06T02:07:40.279Z,13.34
2022-10-06T02:10:08.567Z,13.26
2022-10-06T02:12:36.237Z,13.34
2022-10-06T02:15:04.286Z,13.35
2022-10-06T02:17:31.605Z,13.44
2022-10-06T02:19:58.763Z,13.26
2022-10-06T02:22:27.580Z,13.30
2022-10-06T02:24:54.843Z,12.96
2022-10-06T02:27:22.133Z,13.00
2022-10-06T02:29:50.252Z,13.06
2022-10-06T02:32:17.518Z,13.13
2022-10-06T02:34:45.438Z,13.20
2022-10-06T02:37:13.424Z,13.11
2022-10-06T02:39:40.466Z,13.18
2022-10-06T02:42:08.952Z,12.99
2022-10-06T02:44:38.544Z,13.17
2022-10-06T02:47:05.680Z,13.16
2022-10-06T02:49:32.667Z,12.91
2022-10-06T02:51:59.761Z,12.90
2022-10-06T02:54:26.906Z,12.97
2022-10-06T02:56:53.926Z,12.86
2022-10-06T02:59:21.107Z,12.99
2022-10-06T03:01:48.478Z,12.91
2022-10-06T03:04:19.036Z,12.97
2022-10-06T03:06:46.134Z,12.80
2022-10-06T03:09:18.863Z,12.97
2022-10-06T03:11:46.133Z,13.02
2022-10-06T03:14:22.645Z,12.96
2022-10-06T03:16:51.868Z,12.80
2022-10-06T03:19:23.928Z,12.83
2022-10-06T03:21:51.478Z,12.53
2022-10-06T03:24:18.719Z,12.64
2022-10-06T03:26:51.401Z,12.62
2022-10-06T03:29:20.553Z,12.64
2022-10-06T03:31:52.641Z,12.55
2022-10-06T03:34:19.687Z,12.53
2022-10-06T03:36:46.761Z,12.40
2022-10-06T03:39:16.691Z,12.50
2022-10-06T03:41:43.760Z,12.59
2022-10-06T03:44:10.810Z,12.63
2022-10-06T03:46:40.944Z,12.83
2022-10-06T03:49:08.392Z,12.90
2022-10-06T03:51:41.602Z,13.04
2022-10-06T03:54:13.391Z,13.12
2022-10-06T03:56:43.382Z,13.38
2022-10-06T03:59:16.385Z,13.51
2022-10-06T04:01:48.201Z,13.50
2022-10-06T04:04:23.701Z,13.75
2022-10-06T04:06:55.291Z,13.71
2022-10-06T04:09:22.919Z,13.68
2022-10-06T04:11:51.753Z,13.83
2022-10-06T04:14:19.678Z,13.86
2022-10-06T04:16:49.740Z,14.01
2022-10-06T04:19:22.322Z,13.84
2022-10-06T04:21:53.290Z,14.00
2022-10-06T04:24:28.257Z,14.17
2022-10-06T04:27:16.851Z,14.03
2022-10-06T04:29:48.927Z,13.85
2022-10-06T04:32:16.509Z,13.86
2022-10-06T04:34:43.782Z,13.85
2022-10-06T04:37:11.543Z,14.11
2022-10-06T04:39:39.943Z,14.14
2022-10-06T04:42:07.841Z,14.17
2022-10-06T04:44:35.008Z,14.17
2022-10-06T04:47:04.190Z,14.23
2022-10-06T04:49:31.735Z,14.24
2022-10-06T04:51:59.571Z,14.27
2022-10-06T04:54:33.566Z,14.22
2022-10-06T04:57:02.021Z,14.12
2022-10-06T04:59:49.478Z,14.12
2022-10-06T05:02:19.081Z,14.11
2022-10-06T05:04:46.756Z,14.11
2022-10-06T05:07:15.556Z,14.13
2022-10-06T05:09:43.281Z,14.03
2022-10-06T05:12:11.465Z,14.06
2022-10-06T05:14:39.239Z,13.99
2022-10-06T05:17:06.376Z,14.02
2022-10-06T05:20:00.039Z,13.82
2022-10-06T05:22:27.158Z,14.02
2022-10-06T05:24:54.228Z,13.89
2022-10-06T05:27:21.600Z,13.95
2022-10-06T05:29:48.875Z,14.03
2022-10-06T05:32:16.005Z,13.91
2022-10-06T05:34:43.102Z,14.02
2022-10-06T05:37:10.939Z,14.09
2022-10-06T05:39:39.266Z,14.34
2022-10-06T05:42:06.374Z,14.34
2022-10-06T05:44:33.615Z,14.33
2022-10-06T05:47:06.326Z,14.44
2022-10-06T05:49:33.466Z,14.53
2022-10-06T05:52:03.392Z,14.36
2022-10-06T05:54:33.216Z,14.44
2022-10-06T05:57:00.723Z,14.55
2022-10-06T05:59:29.665Z,14.31
2022-10-06T06:01:59.406Z,14.51
2022-10-06T06:04:33.528Z,14.68
2022-10-06T06:07:01.299Z,14.76
2022-10-06T06:09:28.933Z,14.90
2022-10-06T06:12:08.946Z,14.70
2022-10-06T06:15:09.818Z,14.97
2022-10-06T06:17:46.998Z,14.84
2022-10-06T06:20:39.311Z,14.98
2022-10-06T06:23:06.551Z,14.68
2022-10-06T06:25:33.599Z,14.57
2022-10-06T06:28:00.795Z,14.90
2022-10-06T06:30:27.824Z,14.97
2022-10-06T06:33:00.053Z,15.12
2022-10-06T06:35:27.339Z,15.28
2022-10-06T06:37:54.410Z,15.41
2022-10-06T06:40:21.949Z,15.54
2022-10-06T06:42:53.671Z,15.61
2022-10-06T06:45:53.413Z,15.68
2022-10-06T06:48:25.761Z,15.63
2022-10-06T06:50:58.363Z,15.68
2022-10-06T06:53:26.299Z,15.54
2022-10-06T06:55:57.970Z,15.61
2022-10-06T06:58:25.271Z,15.81
2022-10-06T07:00:52.915Z,15.96
2022-10-06T07:03:52.204Z,16.09
2022-10-06T07:06:13.947Z,15.89
2022-10-06T07:08:45.693Z,15.76
2022-10-06T07:11:17.256Z,15.65
2022-10-06T07:13:47.273Z,15.64
2022-10-06T07:16:36.326Z,15.84
2022-10-06T07:19:24.944Z,16.08
2022-10-06T07:22:21.041Z,16.35
2022-10-06T07:25:07.467Z,16.51
2022-10-06T07:27:51.037Z,16.48
2022-10-06T07:30:26.646Z,16.75
2022-10-06T07:33:22.836Z,16.87
2022-10-06T07:35:51.912Z,17.06
2022-10-06T07:38:25.724Z,17.28
2022-10-06T07:43:46.810Z,17.04
2022-10-06T07:46:15.326Z,17.35
2022-10-06T07:48:49.060Z,17.37
2022-10-06T07:51:19.291Z,17.11
2022-10-06T07:53:50.127Z,17.36
2022-10-06T07:56:28.268Z,17.52
2022-10-06T07:58:58.584Z,17.28
2022-10-06T08:01:30.692Z,17.29
2022-10-06T08:03:57.985Z,16.27
2022-10-06T08:06:25.012Z,16.80
2022-10-06T08:08:56.430Z,16.39
2022-10-06T08:11:23.601Z,17.04
2022-10-06T08:13:52.013Z,17.22
2022-10-06T08:16:23.579Z,17.45
2022-10-06T08:18:53.392Z,17.86
2022-10-06T08:21:31.936Z,17.91
2022-10-06T08:24:00.862Z,17.85
2022-10-06T08:26:31.018Z,18.18
2022-10-06T08:29:02.126Z,18.39
2022-10-06T08:31:31.289Z,18.35
2022-10-06T08:33:58.561Z,18.52
2022-10-06T08:36:31.308Z,18.30
2022-10-06T08:39:00.739Z,18.66
2022-10-06T08:41:48.471Z,19.16
2022-10-06T08:44:19.423Z,19.40
2022-10-06T08:47:04.089Z,19.76
2022-10-06T08:49:41.093Z,19.73
2022-10-06T08:52:28.572Z,20.03
2022-10-06T08:55:43.505Z,20.05
2022-10-06T08:58:33.387Z,20.21
2022-10-06T09:01:10.112Z,20.27
2022-10-06T09:03:37.836Z,20.09
2022-10-06T09:07:09.224Z,18.37
2022-10-06T09:10:06.876Z,19.57
2022-10-06T09:12:53.737Z,20.06
2022-10-06T09:15:37.986Z,20.72
2022-10-06T09:18:22.206Z,21.11
2022-10-06T09:20:59.009Z,21.30
2022-10-06T09:23:50.168Z,20.84
2022-10-06T09:26:32.944Z,21.17
2022-10-06T09:29:00.185Z,21.40
2022-10-06T09:31:34.504Z,21.68
2022-10-06T09:34:21.434Z,22.11
2022-10-06T09:37:09.245Z,22.40
2022-10-06T09:39:48.124Z,22.74
2022-10-06T09:42:35.506Z,23.05
2022-10-06T09:45:05.849Z,23.04
2022-10-06T09:48:29.589Z,22.97
2022-10-06T09:51:13.510Z,22.65
2022-10-06T09:54:38.700Z,22.24
2022-10-06T09:58:02.628Z,22.80
2022-10-06T10:01:26.546Z,22.82
2022-10-06T10:04:20.968Z,22.45
2022-10-06T10:06:49.568Z,22.40
2022-10-06T10:09:27.042Z,22.61
2022-10-06T10:12:33.273Z,23.18
2022-10-06T10:15:25.594Z,23.69
2022-10-06T10:18:50.900Z,23.15
2022-10-06T10:21:31.821Z,24.16
2022-10-06T10:24:02.660Z,24.61
2022-10-06T10:26:39.308Z,24.56
2022-10-06T10:29:43.454Z,24.79
2022-10-06T10:33:07.020Z,25.09
2022-10-06T10:36:30.999Z,25.48
2022-10-06T10:38:59.935Z,25.36
2022-10-06T10:41:37.903Z,25.59
2022-10-06T10:45:01.368Z,25.69
2022-10-06T10:48:24.917Z,25.20
2022-10-06T10:51:05.836Z,25.06
2022-10-06T10:53:43.922Z,24.72
2022-10-06T10:56:13.677Z,24.90
2022-10-06T10:58:43.707Z,24.38
2022-10-06T11:01:19.897Z,24.84
2022-10-06T11:03:56.522Z,24.65
2022-10-06T11:06:54.483Z,24.67
2022-10-06T11:09:55.327Z,24.56
2022-10-06T11:12:51.115Z,24.31
2022-10-06T11:15:47.789Z,24.35
2022-10-06T11:19:11.159Z,24.77
2022-10-06T11:22:20.769Z,24.71
2022-10-06T11:25:00.080Z,24.88
2022-10-06T11:27:30.805Z,25.17
2022-10-06T11:30:15.327Z,25.11
2022-10-06T11:33:03.045Z,25.22
2022-10-06T11:35:37.625Z,25.40
2022-10-06T11:38:18.880Z,25.14
2022-10-06T11:41:10.129Z,24.61
2022-10-06T11:44:00.466Z,24.48
2022-10-06T11:46:45.475Z,24.71
2022-10-06T11:49:33.789Z,24.90
2022-10-06T11:52:08.477Z,25.02
2022-10-06T11:54:47.434Z,25.28
2022-10-06T11:57:29.372Z,25.36
2022-10-06T12:00:03.600Z,25.25
2022-10-06T12:02:44.829Z,25.65
2022-10-06T12:08:02.113Z,25.53
2022-10-06T12:10:29.305Z,25.75
2022-10-06T12:13:51.275Z,26.15
2022-10-06T12:19:19.238Z,25.96
2022-10-06T12:22:22.718Z,26.46
2022-10-06T12:25:14.762Z,26.80
2022-10-06T12:28:23.296Z,26.61
2022-10-06T12:31:18.423Z,26.71
2022-10-06T12:33:46.238Z,26.92
2022-10-06T12:36:24.032Z,27.40
2022-10-06T12:39:22.966Z,27.40
2022-10-06T12:42:03.178Z,27.20
2022-10-06T12:44:51.669Z,27.17
2022-10-06T12:47:32.588Z,27.03
2022-10-06T12:50:25.360Z,27.05
2022-10-06T12:53:05.925Z,27.14
2022-10-06T12:56:32.096Z,26.29
2022-10-06T12:59:19.860Z,27.18
2022-10-06T13:01:51.243Z,27.44
2022-10-06T13:04:36.437Z,27.55
2022-10-06T13:07:59.644Z,27.58
2022-10-06T13:11:23.157Z,26.32
2022-10-06T13:13:54.030Z,26.11
2022-10-06T13:17:17.308Z,26.42
2022-10-06T13:20:40.666Z,26.80
2022-10-06T13:24:04.002Z,27.25
2022-10-06T13:26:32.724Z,28.19
2022-10-06T13:29:00.845Z,30.18
2022-10-06T13:32:24.272Z,30.35
2022-10-06T13:35:47.835Z,29.25
2022-10-06T13:39:11.486Z,29.09
2022-10-06T13:41:46.564Z,28.60
2022-10-06T13:44:18.725Z,29.00
2022-10-06T13:47:42.560Z,28.69
2022-10-06T13:50:19.783Z,28.79
2022-10-06T13:52:48.803Z,28.49
2022-10-06T13:55:25.728Z,28.51
2022-10-06T13:58:00.968Z,28.44
2022-10-06T14:00:46.147Z,30.62
2022-10-06T14:03:25.468Z,32.60
2022-10-06T14:06:05.884Z,33.99
2022-10-06T14:08:34.073Z,34.82
2022-10-06T14:11:06.034Z,35.73
2022-10-06T14:13:47.315Z,34.78
2022-10-06T14:16:25.090Z,33.41
2022-10-06T14:18:59.969Z,32.46
2022-10-06T14:21:34.189Z,32.26
2022-10-06T14:24:28.274Z,31.31
2022-10-06T14:27:02.767Z,29.72
2022-10-06T14:29:31.549Z,29.61
2022-10-06T14:32:18.007Z,27.86
2022-10-06T14:34:46.901Z,27.87
2022-10-06T14:37:16.741Z,28.47
2022-10-06T14:39:46.005Z,30.06
2022-10-06T14:42:15.502Z,31.42
2022-10-06T14:44:43.188Z,32.41
2022-10-06T14:47:10.435Z,32.67
2022-10-06T14:49:37.965Z,32.58
2022-10-06T14:52:08.119Z,33.61
2022-10-06T14:54:35.458Z,33.82
2022-10-06T14:57:02.457Z,34.11
2022-10-06T14:59:29.476Z,34.29
2022-10-06T15:01:56.689Z,34.33
2022-10-06T15:04:27.840Z,34.43
2022-10-06T15:07:13.437Z,34.20
2022-10-06T15:09:43.849Z,33.39
2022-10-06T15:12:11.220Z,32.93
2022-10-06T15:14:39.743Z,32.92
2022-10-06T15:17:07.030Z,33.06
2022-10-06T15:19:34.247Z,33.32
2022-10-06T15:22:05.852Z,33.10
2022-10-06T15:24:33.223Z,33.17
2022-10-06T15:27:22.513Z,32.19
2022-10-06T15:29:52.289Z,30.80
2022-10-06T15:32:19.296Z,29.98
2022-10-06T15:34:46.310Z,29.34
2022-10-06T15:37:13.345Z,28.65
2022-10-06T15:39:40.329Z,27.87
2022-10-06T15:42:08.653Z,27.53
2022-10-06T15:44:36.066Z,26.88
2022-10-06T15:47:05.929Z,26.61
2022-10-06T15:49:37.970Z,26.31
2022-10-06T15:52:05.733Z,26.39
2022-10-06T15:54:40.163Z,26.50
2022-10-06T15:57:12.164Z,26.80
2022-10-06T15:59:44.099Z,26.96
2022-10-06T16:02:15.604Z,26.68
2022-10-06T16:04:43.561Z,27.05
2022-10-06T16:07:19.389Z,26.57
2022-10-06T16:09:49.827Z,26.14
2022-10-06T16:12:21.267Z,25.84
2022-10-06T16:14:48.937Z,25.01
2022-10-06T16:17:16.026Z,24.61
2022-10-06T16:19:43.933Z,24.27
2022-10-06T16:22:17.433Z,24.05
2022-10-06T16:24:44.693Z,23.57
2022-10-06T16:27:13.540Z,23.43
2022-10-06T16:29:40.966Z,23.23
2022-10-06T16:32:08.159Z,23.05
2022-10-06T16:34:35.225Z,22.82
2022-10-06T16:37:02.213Z,22.72
2022-10-06T16:39:29.303Z,22.53
2022-10-06T16:41:56.324Z,22.36
2022-10-06T16:44:23.349Z,22.30
2022-10-06T16:46:50.431Z,22.21
2022-10-06T16:49:17.533Z,22.16
2022-10-06T16:51:49.644Z,22.14
2022-10-06T16:54:17.839Z,22.01
2022-10-06T16:56:53.808Z,22.07
2022-10-06T16:59:28.758Z,21.97
2022-10-06T17:01:55.893Z,21.66
2022-10-06T17:04:25.348Z,21.73
2022-10-06T17:06:55.333Z,21.71
2022-10-06T17:09:27.899Z,21.62
2022-10-06T17:12:03.713Z,21.50
2022-10-06T17:14:33.125Z,21.38
2022-10-06T17:17:00.577Z,21.37
2022-10-06T17:19:29.834Z,21.37
2022-10-06T17:22:03.666Z,21.19
2022-10-06T17:24:31.299Z,21.11
2022-10-06T17:26:59.049Z,21.11
2022-10-06T17:29:27.150Z,21.11
2022-10-06T17:31:59.981Z,21.05
2022-10-06T17:34:32.344Z,21.03
2022-10-06T17:37:02.366Z,21.04
2022-10-06T17:39:30.515Z,20.99
2022-10-06T17:41:57.661Z,20.87
2022-10-06T17:44:27.241Z,20.75
2022-10-06T17:47:00.266Z,20.69
2022-10-06T17:49:29.814Z,20.53
2022-10-06T17:51:57.229Z,20.55
2022-10-06T17:54:26.978Z,20.47
2022-10-06T17:56:57.098Z,20.46
2022-10-06T17:59:30.827Z,20.35
2022-10-06T18:02:02.444Z,19.93
2022-10-06T18:04:30.431Z,19.71
2022-10-06T18:06:57.564Z,19.63
2022-10-06T18:09:24.948Z,19.72
2022-10-06T18:11:56.404Z,19.86
2022-10-06T18:14:32.284Z,19.92
2022-10-06T18:17:02.301Z,19.86
2022-10-06T18:19:33.136Z,19.86
2022-10-06T18:22:11.606Z,19.73
2022-10-06T18:24:40.028Z,19.86
2022-10-06T18:27:08.519Z,19.88
2022-10-06T18:29:38.467Z,19.70
2022-10-06T18:37:42.238Z,19.69
2022-10-06T18:40:11.058Z,19.61
2022-10-06T18:42:39.142Z,19.58
2022-10-06T18:45:26.810Z,19.29
2022-10-06T18:48:12.685Z,19.21
2022-10-06T18:50:40.197Z,19.14
2022-10-06T18:53:07.335Z,19.25
2022-10-06T18:55:34.869Z,19.29
2022-10-06T18:58:02.562Z,19.34
2022-10-06T19:00:31.087Z,19.12
2022-10-06T19:02:58.407Z,19.06
2022-10-06T19:05:27.654Z,18.83
2022-10-06T19:07:55.707Z,18.95
2022-10-06T19:10:23.129Z,18.89
2022-10-06T19:12:50.680Z,18.68
2022-10-06T19:15:20.617Z,18.75
2022-10-06T19:17:49.448Z,18.88
2022-10-06T19:20:18.315Z,18.97
2022-10-06T19:22:47.408Z,18.84
2022-10-06T19:25:18.579Z,18.78
2022-10-06T19:27:45.883Z,18.56
2022-10-06T19:30:13.506Z,18.81
2022-10-06T19:32:40.690Z,18.90
2022-10-06T19:35:10.268Z,18.91
2022-10-06T19:37:38.614Z,18.88
2022-10-06T19:40:08.532Z,18.96
2022-10-06T19:42:47.571Z,19.04
2022-10-06T19:45:15.983Z,18.95
2022-10-06T19:47:45.032Z,18.99
2022-10-06T19:50:13.051Z,18.98
2022-10-06T19:52:43.108Z,18.98
2022-10-06T19:55:10.173Z,18.98
2022-10-06T19:57:37.219Z,18.88
2022-10-06T20:00:06.251Z,18.94
2022-10-06T20:02:42.817Z,18.96
2022-10-06T20:05:14.105Z,18.81
2022-10-06T20:07:43.796Z,18.69
2022-10-06T20:10:12.559Z,18.66
2022-10-06T20:12:41.318Z,18.61
2022-10-06T20:15:09.844Z,18.47
2022-10-06T20:17:37.060Z,18.39
2022-10-06T20:20:04.419Z,18.24
2022-10-06T20:22:31.786Z,18.30
2022-10-06T20:24:58.943Z,18.28
2022-10-06T20:27:25.920Z,18.17
2022-10-06T20:29:53.730Z,18.08
2022-10-06T20:32:21.930Z,18.14
2022-10-06T20:34:48.916Z,18.07
2022-10-06T20:37:15.887Z,17.98
2022-10-06T20:40:01.233Z,17.95
2022-10-06T20:42:28.212Z,17.98
2022-10-06T20:44:55.173Z,17.93
2022-10-06T20:47:23.288Z,17.83
2022-10-06T20:49:55.014Z,17.89
2022-10-06T20:52:24.208Z,17.91
2022-10-06T20:54:51.935Z,17.77
2022-10-06T20:57:18.989Z,17.76
2022-10-06T20:59:46.410Z,17.76
2022-10-06T21:02:13.518Z,17.73
2022-10-06T21:04:43.465Z,17.83
2022-10-06T21:07:11.168Z,17.73
2022-10-06T21:09:47.506Z,17.72
2022-10-06T21:12:17.073Z,17.73
2022-10-06T21:14:44.215Z,17.61
2022-10-06T21:17:11.314Z,17.32
2022-10-06T21:19:38.404Z,17.37
2022-10-06T21:22:10.616Z,17.04
2022-10-06T21:24:37.861Z,17.16
2022-10-06T21:27:30.217Z,17.23
2022-10-06T21:29:57.376Z,17.31
2022-10-06T21:32:24.771Z,17.38
2022-10-06T21:34:56.348Z,17.43
2022-10-06T21:37:23.337Z,17.50
2022-10-06T21:39:50.640Z,17.57
2022-10-06T21:42:18.353Z,17.55
2022-10-06T21:44:45.476Z,17.52
2022-10-06T21:47:12.809Z,17.29
2022-10-06T21:49:39.852Z,17.24
2022-10-06T21:52:07.004Z,17.14
2022-10-06T21:54:34.469Z,17.15
2022-10-06T21:57:01.805Z,17.16
2022-10-06T21:59:28.845Z,17.13
2022-10-06T22:01:56.771Z,16.96
2022-10-06T22:04:24.250Z,16.94
2022-10-06T22:06:51.681Z,16.94
2022-10-06T22:09:20.649Z,16.90
2022-10-06T22:11:47.835Z,16.85
2022-10-06T22:14:17.612Z,16.73
2022-10-06T22:16:45.384Z,16.86
2022-10-06T22:19:14.699Z,16.85
2022-10-06T22:21:45.584Z,16.89
2022-10-06T22:24:19.548Z,16.85
2022-10-06T22:26:48.520Z,16.82
2022-10-06T22:29:18.283Z,16.87
2022-10-06T22:31:47.089Z,16.78
2022-10-06T22:34:18.681Z,16.77
2022-10-06T22:36:46.070Z,16.83
2022-10-06T22:39:13.351Z,16.84
2022-10-06T22:41:40.788Z,16.93
2022-10-06T22:44:07.960Z,16.94
2022-10-06T22:46:36.974Z,16.87
2022-10-06T22:49:05.144Z,16.99
2022-10-06T22:51:32.446Z,17.05
2022-10-06T22:54:00.394Z,17.02
2022-10-06T22:56:31.250Z,16.95
2022-10-06T22:59:01.723Z,17.03
2022-10-06T23:01:30.427Z,17.03
2022-10-06T23:03:58.441Z,17.04
2022-10-06T23:06:26.010Z,17.02
2022-10-06T23:08:53.007Z,16.86
2022-10-06T23:11:22.568Z,16.76
2022-10-06T23:13:50.337Z,16.84
2022-10-06T23:16:19.198Z,16.87
2022-10-06T23:18:47.648Z,16.78
2022-10-06T23:21:21.255Z,16.81
2022-10-06T23:23:52.257Z,16.82
2022-10-06T23:26:21.890Z,16.80
2022-10-06T23:28:56.309Z,16.81
2022-10-06T23:31:24.136Z,16.78
2022-10-06T23:33:51.447Z,16.74
2022-10-06T23:36:18.858Z,16.70
2022-10-06T23:38:47.244Z,16.70
2022-10-06T23:41:15.382Z,16.76
2022-10-06T23:43:42.918Z,16.74
2022-10-06T23:46:10.299Z,16.76
2022-10-06T23:48:37.480Z,16.73
2022-10-06T23:51:12.304Z,16.78
2022-10-06T23:53:39.496Z,16.79
2022-10-06T23:56:07.804Z,16.75
2022-10-06T23:58:35.479Z,16.74
